sensor_id;sensor_type;location;lat;lon;timestamp;P1;durP1;ratioP1;P2;durP2;ratioP2
28629;SDS011;15817;42.130;24.762;2023-07-24T00:00:35;11.80;;;7.05;;
28629;SDS011;15817;42.130;24.762;2023-07-24T00:03:02;10.95;;;7.10;;
28629;SDS011;15817;42.130;24.762;2023-07-24T00:05:28;11.05;;;7.03;;
28629;SDS011;15817;42.130;24.762;2023-07-24T00:07:54;7.82;;;6.60;;
28629;SDS011;15817;42.130;24.762;2023-07-24T00:10:20;11.05;;;7.28;;
28629;SDS011;15817;42.130;24.762;2023-07-24T00:12:49;12.48;;;7.60;;
28629;SDS011;15817;42.130;24.762;2023-07-24T00:15:14;11.00;;;7.35;;
28629;SDS011;15817;42.130;24.762;2023-07-24T00:17:40;8.38;;;6.90;;
28629;SDS011;15817;42.130;24.762;2023-07-24T00:20:06;10.98;;;6.82;;
28629;SDS011;15817;42.130;24.762;2023-07-24T00:22:33;8.93;;;7.40;;
28629;SDS011;15817;42.130;24.762;2023-07-24T00:24:59;10.23;;;7.13;;
28629;SDS011;15817;42.130;24.762;2023-07-24T00:27:25;9.80;;;6.57;;
28629;SDS011;15817;42.130;24.762;2023-07-24T00:29:51;8.43;;;6.47;;
28629;SDS011;15817;42.130;24.762;2023-07-24T00:32:17;5.85;;;5.15;;
28629;SDS011;15817;42.130;24.762;2023-07-24T00:34:43;9.23;;;5.70;;
28629;SDS011;15817;42.130;24.762;2023-07-24T00:37:09;7.03;;;5.07;;
28629;SDS011;15817;42.130;24.762;2023-07-24T00:39:34;8.38;;;5.15;;
28629;SDS011;15817;42.130;24.762;2023-07-24T00:42:01;7.90;;;5.20;;
28629;SDS011;15817;42.130;24.762;2023-07-24T00:44:28;7.57;;;5.43;;
28629;SDS011;15817;42.130;24.762;2023-07-24T00:46:54;7.78;;;5.05;;
28629;SDS011;15817;42.130;24.762;2023-07-24T00:49:22;7.53;;;5.25;;
28629;SDS011;15817;42.130;24.762;2023-07-24T00:51:49;10.15;;;4.63;;
28629;SDS011;15817;42.130;24.762;2023-07-24T00:54:16;5.68;;;4.78;;
28629;SDS011;15817;42.130;24.762;2023-07-24T00:56:44;6.85;;;4.60;;
28629;SDS011;15817;42.130;24.762;2023-07-24T00:59:13;5.85;;;4.50;;
28629;SDS011;15817;42.130;24.762;2023-07-24T01:01:40;10.15;;;4.47;;
28629;SDS011;15817;42.130;24.762;2023-07-24T01:04:08;7.40;;;4.50;;
28629;SDS011;15817;42.130;24.762;2023-07-24T01:06:37;9.35;;;5.25;;
28629;SDS011;15817;42.130;24.762;2023-07-24T01:09:05;6.88;;;4.60;;
28629;SDS011;15817;42.130;24.762;2023-07-24T01:11:36;6.70;;;4.53;;
28629;SDS011;15817;42.130;24.762;2023-07-24T01:14:27;6.18;;;4.53;;
28629;SDS011;15817;42.130;24.762;2023-07-24T01:17:06;11.20;;;4.40;;
28629;SDS011;15817;42.130;24.762;2023-07-24T01:19:46;7.95;;;4.47;;
28629;SDS011;15817;42.130;24.762;2023-07-24T01:22:21;6.55;;;4.22;;
28629;SDS011;15817;42.130;24.762;2023-07-24T01:27:32;9.32;;;4.43;;
28629;SDS011;15817;42.130;24.762;2023-07-24T01:29:58;9.35;;;4.45;;
28629;SDS011;15817;42.130;24.762;2023-07-24T01:32:27;5.65;;;4.40;;
28629;SDS011;15817;42.130;24.762;2023-07-24T01:34:53;6.93;;;4.95;;
28629;SDS011;15817;42.130;24.762;2023-07-24T01:37:22;8.23;;;4.45;;
28629;SDS011;15817;42.130;24.762;2023-07-24T01:39:50;10.50;;;4.72;;
28629;SDS011;15817;42.130;24.762;2023-07-24T01:42:21;11.35;;;5.18;;
28629;SDS011;15817;42.130;24.762;2023-07-24T01:44:53;10.80;;;5.25;;
28629;SDS011;15817;42.130;24.762;2023-07-24T01:47:20;8.30;;;5.70;;
28629;SDS011;15817;42.130;24.762;2023-07-24T01:49:47;7.53;;;5.03;;
28629;SDS011;15817;42.130;24.762;2023-07-24T01:52:13;8.70;;;4.70;;
28629;SDS011;15817;42.130;24.762;2023-07-24T01:54:39;8.80;;;4.65;;
28629;SDS011;15817;42.130;24.762;2023-07-24T01:57:06;10.80;;;4.55;;
28629;SDS011;15817;42.130;24.762;2023-07-24T01:59:35;9.75;;;4.80;;
28629;SDS011;15817;42.130;24.762;2023-07-24T02:02:05;7.22;;;4.35;;
28629;SDS011;15817;42.130;24.762;2023-07-24T02:04:33;9.65;;;4.80;;
28629;SDS011;15817;42.130;24.762;2023-07-24T02:06:59;6.15;;;4.30;;
28629;SDS011;15817;42.130;24.762;2023-07-24T02:09:27;5.40;;;4.10;;
28629;SDS011;15817;42.130;24.762;2023-07-24T02:11:54;9.15;;;5.63;;
28629;SDS011;15817;42.130;24.762;2023-07-24T02:14:20;8.95;;;5.30;;
28629;SDS011;15817;42.130;24.762;2023-07-24T02:16:48;9.93;;;5.72;;
28629;SDS011;15817;42.130;24.762;2023-07-24T02:19:14;10.43;;;6.43;;
28629;SDS011;15817;42.130;24.762;2023-07-24T02:21:43;12.73;;;7.00;;
28629;SDS011;15817;42.130;24.762;2023-07-24T02:24:09;18.00;;;8.10;;
28629;SDS011;15817;42.130;24.762;2023-07-24T02:26:40;16.33;;;7.90;;
28629;SDS011;15817;42.130;24.762;2023-07-24T02:29:06;13.02;;;7.78;;
28629;SDS011;15817;42.130;24.762;2023-07-24T02:31:32;13.07;;;7.80;;
28629;SDS011;15817;42.130;24.762;2023-07-24T02:34:01;17.27;;;8.82;;
28629;SDS011;15817;42.130;24.762;2023-07-24T02:36:26;18.25;;;9.93;;
28629;SDS011;15817;42.130;24.762;2023-07-24T02:38:52;13.32;;;8.75;;
28629;SDS011;15817;42.130;24.762;2023-07-24T02:41:21;14.27;;;9.75;;
28629;SDS011;15817;42.130;24.762;2023-07-24T02:43:47;15.10;;;9.95;;
28629;SDS011;15817;42.130;24.762;2023-07-24T02:46:13;13.85;;;9.43;;
28629;SDS011;15817;42.130;24.762;2023-07-24T02:48:39;18.02;;;10.57;;
28629;SDS011;15817;42.130;24.762;2023-07-24T02:51:07;18.77;;;10.80;;
28629;SDS011;15817;42.130;24.762;2023-07-24T02:53:32;13.85;;;10.15;;
28629;SDS011;15817;42.130;24.762;2023-07-24T02:56:01;14.85;;;10.32;;
28629;SDS011;15817;42.130;24.762;2023-07-24T02:58:27;17.05;;;11.05;;
28629;SDS011;15817;42.130;24.762;2023-07-24T03:00:53;14.10;;;9.95;;
28629;SDS011;15817;42.130;24.762;2023-07-24T03:03:19;15.88;;;11.48;;
28629;SDS011;15817;42.130;24.762;2023-07-24T03:05:45;16.05;;;10.38;;
28629;SDS011;15817;42.130;24.762;2023-07-24T03:08:11;17.75;;;11.20;;
28629;SDS011;15817;42.130;24.762;2023-07-24T03:10:39;18.75;;;11.25;;
28629;SDS011;15817;42.130;24.762;2023-07-24T03:13:06;16.23;;;10.48;;
28629;SDS011;15817;42.130;24.762;2023-07-24T03:15:40;17.20;;;11.63;;
28629;SDS011;15817;42.130;24.762;2023-07-24T03:18:06;18.38;;;12.85;;
28629;SDS011;15817;42.130;24.762;2023-07-24T03:20:32;20.42;;;13.32;;
28629;SDS011;15817;42.130;24.762;2023-07-24T03:22:57;22.92;;;14.70;;
28629;SDS011;15817;42.130;24.762;2023-07-24T03:25:26;23.80;;;13.43;;
28629;SDS011;15817;42.130;24.762;2023-07-24T03:27:52;21.08;;;13.57;;
28629;SDS011;15817;42.130;24.762;2023-07-24T03:30:19;27.70;;;15.10;;
28629;SDS011;15817;42.130;24.762;2023-07-24T03:32:48;22.40;;;13.35;;
28629;SDS011;15817;42.130;24.762;2023-07-24T03:35:15;19.85;;;13.15;;
28629;SDS011;15817;42.130;24.762;2023-07-24T03:37:44;26.85;;;13.80;;
28629;SDS011;15817;42.130;24.762;2023-07-24T03:40:10;19.30;;;12.75;;
28629;SDS011;15817;42.130;24.762;2023-07-24T03:42:37;23.40;;;12.70;;
28629;SDS011;15817;42.130;24.762;2023-07-24T03:45:03;21.83;;;12.52;;
28629;SDS011;15817;42.130;24.762;2023-07-24T03:47:30;22.85;;;12.85;;
28629;SDS011;15817;42.130;24.762;2023-07-24T03:49:56;22.83;;;13.98;;
28629;SDS011;15817;42.130;24.762;2023-07-24T03:52:32;25.88;;;12.25;;
28629;SDS011;15817;42.130;24.762;2023-07-24T03:55:38;22.02;;;13.98;;
28629;SDS011;15817;42.130;24.762;2023-07-24T03:58:41;23.50;;;13.05;;
28629;SDS011;15817;42.130;24.762;2023-07-24T04:01:08;18.10;;;13.10;;
28629;SDS011;15817;42.130;24.762;2023-07-24T04:03:34;18.98;;;12.70;;
28629;SDS011;15817;42.130;24.762;2023-07-24T04:06:14;20.80;;;12.93;;
28629;SDS011;15817;42.130;24.762;2023-07-24T04:08:46;19.08;;;13.68;;
28629;SDS011;15817;42.130;24.762;2023-07-24T04:11:12;20.90;;;13.30;;
28629;SDS011;15817;42.130;24.762;2023-07-24T04:13:38;17.95;;;12.80;;
28629;SDS011;15817;42.130;24.762;2023-07-24T04:16:04;21.30;;;13.88;;
28629;SDS011;15817;42.130;24.762;2023-07-24T04:18:30;20.75;;;14.05;;
28629;SDS011;15817;42.130;24.762;2023-07-24T04:20:56;21.95;;;15.30;;
28629;SDS011;15817;42.130;24.762;2023-07-24T04:23:24;18.38;;;14.93;;
28629;SDS011;15817;42.130;24.762;2023-07-24T04:25:50;25.23;;;14.90;;
28629;SDS011;15817;42.130;24.762;2023-07-24T04:28:33;21.92;;;16.17;;
28629;SDS011;15817;42.130;24.762;2023-07-24T04:31:02;19.10;;;14.98;;
28629;SDS011;15817;42.130;24.762;2023-07-24T04:33:51;20.60;;;14.77;;
28629;SDS011;15817;42.130;24.762;2023-07-24T04:36:43;20.10;;;14.85;;
28629;SDS011;15817;42.130;24.762;2023-07-24T04:39:11;20.83;;;15.18;;
28629;SDS011;15817;42.130;24.762;2023-07-24T04:41:40;27.60;;;16.65;;
28629;SDS011;15817;42.130;24.762;2023-07-24T04:44:06;22.02;;;14.90;;
28629;SDS011;15817;42.130;24.762;2023-07-24T04:46:31;21.52;;;15.25;;
28629;SDS011;15817;42.130;24.762;2023-07-24T04:48:57;21.25;;;15.45;;
28629;SDS011;15817;42.130;24.762;2023-07-24T04:51:23;30.73;;;15.88;;
28629;SDS011;15817;42.130;24.762;2023-07-24T04:53:49;24.20;;;15.52;;
28629;SDS011;15817;42.130;24.762;2023-07-24T04:56:14;18.17;;;14.98;;
28629;SDS011;15817;42.130;24.762;2023-07-24T04:58:40;21.85;;;15.43;;
28629;SDS011;15817;42.130;24.762;2023-07-24T05:01:06;18.13;;;14.77;;
28629;SDS011;15817;42.130;24.762;2023-07-24T05:03:32;18.88;;;14.60;;
28629;SDS011;15817;42.130;24.762;2023-07-24T05:05:58;19.35;;;14.35;;
28629;SDS011;15817;42.130;24.762;2023-07-24T05:08:27;21.63;;;15.38;;
28629;SDS011;15817;42.130;24.762;2023-07-24T05:10:56;21.15;;;16.33;;
28629;SDS011;15817;42.130;24.762;2023-07-24T05:13:24;18.50;;;14.88;;
28629;SDS011;15817;42.130;24.762;2023-07-24T05:16:23;20.63;;;14.57;;
28629;SDS011;15817;42.130;24.762;2023-07-24T05:18:49;18.88;;;14.65;;
28629;SDS011;15817;42.130;24.762;2023-07-24T05:21:19;23.50;;;15.60;;
28629;SDS011;15817;42.130;24.762;2023-07-24T05:23:46;21.73;;;14.48;;
28629;SDS011;15817;42.130;24.762;2023-07-24T05:26:15;20.23;;;13.73;;
28629;SDS011;15817;42.130;24.762;2023-07-24T05:28:44;20.63;;;13.52;;
28629;SDS011;15817;42.130;24.762;2023-07-24T05:31:14;21.70;;;14.02;;
28629;SDS011;15817;42.130;24.762;2023-07-24T05:33:50;19.98;;;13.82;;
28629;SDS011;15817;42.130;24.762;2023-07-24T05:36:28;23.90;;;13.70;;
28629;SDS011;15817;42.130;24.762;2023-07-24T05:39:07;20.00;;;13.95;;
28629;SDS011;15817;42.130;24.762;2023-07-24T05:41:37;20.23;;;14.35;;
28629;SDS011;15817;42.130;24.762;2023-07-24T05:44:09;19.25;;;13.70;;
28629;SDS011;15817;42.130;24.762;2023-07-24T05:46:34;21.67;;;14.63;;
28629;SDS011;15817;42.130;24.762;2023-07-24T05:49:09;17.73;;;14.02;;
28629;SDS011;15817;42.130;24.762;2023-07-24T05:51:46;23.80;;;15.00;;
28629;SDS011;15817;42.130;24.762;2023-07-24T05:54:17;29.63;;;14.45;;
28629;SDS011;15817;42.130;24.762;2023-07-24T05:56:43;21.23;;;15.18;;
28629;SDS011;15817;42.130;24.762;2023-07-24T05:59:15;21.27;;;14.70;;
28629;SDS011;15817;42.130;24.762;2023-07-24T06:01:41;22.95;;;15.02;;
28629;SDS011;15817;42.130;24.762;2023-07-24T06:04:10;22.83;;;13.65;;
28629;SDS011;15817;42.130;24.762;2023-07-24T06:06:36;22.25;;;13.88;;
28629;SDS011;15817;42.130;24.762;2023-07-24T06:09:02;20.50;;;13.55;;
28629;SDS011;15817;42.130;24.762;2023-07-24T06:11:31;21.38;;;14.35;;
28629;SDS011;15817;42.130;24.762;2023-07-24T06:14:01;20.10;;;14.00;;
28629;SDS011;15817;42.130;24.762;2023-07-24T06:16:32;23.10;;;14.90;;
28629;SDS011;15817;42.130;24.762;2023-07-24T06:18:58;25.00;;;15.18;;
28629;SDS011;15817;42.130;24.762;2023-07-24T06:21:28;17.48;;;14.13;;
28629;SDS011;15817;42.130;24.762;2023-07-24T06:23:54;19.67;;;13.98;;
28629;SDS011;15817;42.130;24.762;2023-07-24T06:26:23;22.65;;;15.20;;
28629;SDS011;15817;42.130;24.762;2023-07-24T06:28:49;19.00;;;14.63;;
28629;SDS011;15817;42.130;24.762;2023-07-24T06:31:15;27.38;;;15.75;;
28629;SDS011;15817;42.130;24.762;2023-07-24T06:33:41;42.95;;;15.75;;
28629;SDS011;15817;42.130;24.762;2023-07-24T06:36:10;20.25;;;14.02;;
28629;SDS011;15817;42.130;24.762;2023-07-24T06:38:46;56.00;;;16.25;;
28629;SDS011;15817;42.130;24.762;2023-07-24T06:41:19;33.47;;;14.88;;
28629;SDS011;15817;42.130;24.762;2023-07-24T06:43:48;42.33;;;14.95;;
28629;SDS011;15817;42.130;24.762;2023-07-24T06:46:14;62.42;;;16.67;;
28629;SDS011;15817;42.130;24.762;2023-07-24T06:48:46;20.75;;;13.18;;
28629;SDS011;15817;42.130;24.762;2023-07-24T06:51:33;20.58;;;14.13;;
28629;SDS011;15817;42.130;24.762;2023-07-24T06:53:59;19.45;;;14.23;;
28629;SDS011;15817;42.130;24.762;2023-07-24T06:56:27;56.10;;;18.23;;
28629;SDS011;15817;42.130;24.762;2023-07-24T06:58:58;82.57;;;20.25;;
28629;SDS011;15817;42.130;24.762;2023-07-24T07:01:24;40.65;;;16.27;;
28629;SDS011;15817;42.130;24.762;2023-07-24T07:03:54;24.15;;;14.77;;
28629;SDS011;15817;42.130;24.762;2023-07-24T07:06:20;21.38;;;15.05;;
28629;SDS011;15817;42.130;24.762;2023-07-24T07:08:46;21.15;;;15.05;;
28629;SDS011;15817;42.130;24.762;2023-07-24T07:11:12;22.17;;;14.55;;
28629;SDS011;15817;42.130;24.762;2023-07-24T07:13:38;21.85;;;14.60;;
28629;SDS011;15817;42.130;24.762;2023-07-24T07:16:04;20.92;;;14.98;;
28629;SDS011;15817;42.130;24.762;2023-07-24T07:18:30;22.50;;;15.07;;
28629;SDS011;15817;42.130;24.762;2023-07-24T07:20:58;23.55;;;15.45;;
28629;SDS011;15817;42.130;24.762;2023-07-24T07:23:44;20.10;;;14.32;;
28629;SDS011;15817;42.130;24.762;2023-07-24T07:26:23;18.35;;;14.02;;
28629;SDS011;15817;42.130;24.762;2023-07-24T07:28:53;26.30;;;14.65;;
28629;SDS011;15817;42.130;24.762;2023-07-24T07:31:19;22.42;;;14.75;;
28629;SDS011;15817;42.130;24.762;2023-07-24T07:33:45;19.48;;;14.20;;
28629;SDS011;15817;42.130;24.762;2023-07-24T07:36:11;20.63;;;14.13;;
28629;SDS011;15817;42.130;24.762;2023-07-24T07:38:40;21.98;;;14.18;;
28629;SDS011;15817;42.130;24.762;2023-07-24T07:41:13;21.65;;;13.85;;
28629;SDS011;15817;42.130;24.762;2023-07-24T07:43:52;20.42;;;14.32;;
28629;SDS011;15817;42.130;24.762;2023-07-24T07:46:20;57.67;;;16.50;;
28629;SDS011;15817;42.130;24.762;2023-07-24T07:49:09;20.02;;;14.00;;
28629;SDS011;15817;42.130;24.762;2023-07-24T07:51:41;28.48;;;14.43;;
28629;SDS011;15817;42.130;24.762;2023-07-24T07:54:07;18.38;;;12.75;;
28629;SDS011;15817;42.130;24.762;2023-07-24T07:56:50;18.48;;;13.20;;
28629;SDS011;15817;42.130;24.762;2023-07-24T07:59:16;15.60;;;12.60;;
28629;SDS011;15817;42.130;24.762;2023-07-24T08:01:44;14.60;;;12.30;;
28629;SDS011;15817;42.130;24.762;2023-07-24T08:04:25;18.38;;;13.20;;
28629;SDS011;15817;42.130;24.762;2023-07-24T08:06:51;15.90;;;12.85;;
28629;SDS011;15817;42.130;24.762;2023-07-24T08:09:39;19.73;;;13.88;;
28629;SDS011;15817;42.130;24.762;2023-07-24T08:12:08;19.77;;;13.68;;
28629;SDS011;15817;42.130;24.762;2023-07-24T08:14:50;17.65;;;12.82;;
28629;SDS011;15817;42.130;24.762;2023-07-24T08:17:23;19.85;;;12.93;;
28629;SDS011;15817;42.130;24.762;2023-07-24T08:19:52;16.35;;;13.40;;
28629;SDS011;15817;42.130;24.762;2023-07-24T08:22:42;21.17;;;13.77;;
28629;SDS011;15817;42.130;24.762;2023-07-24T08:25:22;28.63;;;14.95;;
28629;SDS011;15817;42.130;24.762;2023-07-24T08:28:06;17.20;;;12.52;;
28629;SDS011;15817;42.130;24.762;2023-07-24T08:30:50;25.60;;;12.73;;
28629;SDS011;15817;42.130;24.762;2023-07-24T08:33:51;26.77;;;13.43;;
28629;SDS011;15817;42.130;24.762;2023-07-24T08:36:27;21.23;;;12.10;;
28629;SDS011;15817;42.130;24.762;2023-07-24T08:39:08;14.15;;;11.63;;
28629;SDS011;15817;42.130;24.762;2023-07-24T08:41:50;15.80;;;12.45;;
28629;SDS011;15817;42.130;24.762;2023-07-24T08:44:16;16.52;;;12.63;;
28629;SDS011;15817;42.130;24.762;2023-07-24T08:46:46;17.05;;;12.75;;
28629;SDS011;15817;42.130;24.762;2023-07-24T08:49:23;56.92;;;14.85;;
28629;SDS011;15817;42.130;24.762;2023-07-24T08:51:52;32.60;;;13.65;;
28629;SDS011;15817;42.130;24.762;2023-07-24T08:54:19;14.60;;;11.52;;
28629;SDS011;15817;42.130;24.762;2023-07-24T08:56:54;15.23;;;11.20;;
28629;SDS011;15817;42.130;24.762;2023-07-24T08:59:46;21.55;;;11.75;;
28629;SDS011;15817;42.130;24.762;2023-07-24T09:02:18;14.73;;;11.23;;
28629;SDS011;15817;42.130;24.762;2023-07-24T09:10:26;13.93;;;11.35;;
28629;SDS011;15817;42.130;24.762;2023-07-24T09:12:55;13.98;;;10.20;;
28629;SDS011;15817;42.130;24.762;2023-07-24T09:15:44;14.07;;;9.18;;
28629;SDS011;15817;42.130;24.762;2023-07-24T09:21:35;15.43;;;8.85;;
28629;SDS011;15817;42.130;24.762;2023-07-24T09:24:37;15.10;;;9.20;;
28629;SDS011;15817;42.130;24.762;2023-07-24T09:27:06;15.55;;;9.35;;
28629;SDS011;15817;42.130;24.762;2023-07-24T09:29:53;15.90;;;10.75;;
28629;SDS011;15817;42.130;24.762;2023-07-24T09:32:23;24.02;;;9.93;;
28629;SDS011;15817;42.130;24.762;2023-07-24T09:35:15;13.43;;;10.23;;
28629;SDS011;15817;42.130;24.762;2023-07-24T09:37:46;13.07;;;10.25;;
28629;SDS011;15817;42.130;24.762;2023-07-24T09:40:14;13.77;;;9.57;;
28629;SDS011;15817;42.130;24.762;2023-07-24T09:42:51;16.58;;;9.82;;
28629;SDS011;15817;42.130;24.762;2023-07-24T09:45:32;13.90;;;9.73;;
28629;SDS011;15817;42.130;24.762;2023-07-24T09:48:03;17.13;;;10.32;;
28629;SDS011;15817;42.130;24.762;2023-07-24T09:50:38;12.38;;;10.20;;
28629;SDS011;15817;42.130;24.762;2023-07-24T09:53:32;15.15;;;10.25;;
28629;SDS011;15817;42.130;24.762;2023-07-24T09:56:27;11.25;;;9.70;;
28629;SDS011;15817;42.130;24.762;2023-07-24T09:59:04;15.00;;;10.00;;
28629;SDS011;15817;42.130;24.762;2023-07-24T10:01:47;14.23;;;9.95;;
28629;SDS011;15817;42.130;24.762;2023-07-24T10:04:23;16.67;;;9.20;;
28629;SDS011;15817;42.130;24.762;2023-07-24T10:07:16;16.33;;;10.02;;
28629;SDS011;15817;42.130;24.762;2023-07-24T10:10:23;15.95;;;9.95;;
28629;SDS011;15817;42.130;24.762;2023-07-24T10:13:02;13.55;;;9.85;;
28629;SDS011;15817;42.130;24.762;2023-07-24T10:15:39;12.32;;;9.52;;
28629;SDS011;15817;42.130;24.762;2023-07-24T10:18:09;13.05;;;9.55;;
28629;SDS011;15817;42.130;24.762;2023-07-24T10:21:03;14.32;;;8.93;;
28629;SDS011;15817;42.130;24.762;2023-07-24T10:23:30;11.38;;;9.13;;
28629;SDS011;15817;42.130;24.762;2023-07-24T10:26:05;12.70;;;9.85;;
28629;SDS011;15817;42.130;24.762;2023-07-24T10:28:56;10.48;;;8.73;;
28629;SDS011;15817;42.130;24.762;2023-07-24T10:31:51;11.77;;;8.50;;
28629;SDS011;15817;42.130;24.762;2023-07-24T10:34:39;46.22;;;11.35;;
28629;SDS011;15817;42.130;24.762;2023-07-24T10:37:33;10.50;;;9.43;;
28629;SDS011;15817;42.130;24.762;2023-07-24T10:40:03;13.32;;;9.70;;
28629;SDS011;15817;42.130;24.762;2023-07-24T10:43:05;13.68;;;9.40;;
28629;SDS011;15817;42.130;24.762;2023-07-24T10:48:50;11.13;;;9.90;;
28629;SDS011;15817;42.130;24.762;2023-07-24T10:51:33;14.50;;;9.75;;
28629;SDS011;15817;42.130;24.762;2023-07-24T10:54:08;13.95;;;8.98;;
28629;SDS011;15817;42.130;24.762;2023-07-24T10:56:43;14.30;;;8.48;;
28629;SDS011;15817;42.130;24.762;2023-07-24T10:59:38;10.95;;;8.50;;
28629;SDS011;15817;42.130;24.762;2023-07-24T11:02:16;13.95;;;8.45;;
28629;SDS011;15817;42.130;24.762;2023-07-24T11:13:57;14.02;;;9.95;;
28629;SDS011;15817;42.130;24.762;2023-07-24T11:16:47;11.40;;;10.07;;
28629;SDS011;15817;42.130;24.762;2023-07-24T11:19:44;12.20;;;10.00;;
28629;SDS011;15817;42.130;24.762;2023-07-24T11:22:23;15.95;;;10.05;;
28629;SDS011;15817;42.130;24.762;2023-07-24T11:25:05;10.60;;;9.48;;
28629;SDS011;15817;42.130;24.762;2023-07-24T11:27:58;11.05;;;9.45;;
28629;SDS011;15817;42.130;24.762;2023-07-24T11:30:48;11.65;;;9.50;;
28629;SDS011;15817;42.130;24.762;2023-07-24T11:37:12;12.40;;;9.88;;
28629;SDS011;15817;42.130;24.762;2023-07-24T11:40:02;11.00;;;9.20;;
28629;SDS011;15817;42.130;24.762;2023-07-24T11:42:49;11.82;;;9.70;;
28629;SDS011;15817;42.130;24.762;2023-07-24T11:45:17;55.20;;;12.82;;
28629;SDS011;15817;42.130;24.762;2023-07-24T11:47:55;20.55;;;9.98;;
28629;SDS011;15817;42.130;24.762;2023-07-24T11:56:13;13.40;;;10.02;;
28629;SDS011;15817;42.130;24.762;2023-07-24T11:59:05;10.75;;;9.60;;
28629;SDS011;15817;42.130;24.762;2023-07-24T12:02:03;11.70;;;9.07;;
28629;SDS011;15817;42.130;24.762;2023-07-24T12:05:12;10.48;;;9.45;;
28629;SDS011;15817;42.130;24.762;2023-07-24T12:10:51;10.80;;;8.85;;
28629;SDS011;15817;42.130;24.762;2023-07-24T12:13:33;10.00;;;9.00;;
28629;SDS011;15817;42.130;24.762;2023-07-24T12:24:09;14.13;;;9.48;;
28629;SDS011;15817;42.130;24.762;2023-07-24T12:26:45;11.13;;;9.80;;
28629;SDS011;15817;42.130;24.762;2023-07-24T12:29:16;12.50;;;9.43;;
28629;SDS011;15817;42.130;24.762;2023-07-24T12:31:42;13.05;;;9.13;;
28629;SDS011;15817;42.130;24.762;2023-07-24T12:34:08;9.55;;;8.55;;
28629;SDS011;15817;42.130;24.762;2023-07-24T12:36:36;11.65;;;9.18;;
28629;SDS011;15817;42.130;24.762;2023-07-24T12:39:04;11.23;;;9.13;;
28629;SDS011;15817;42.130;24.762;2023-07-24T12:41:35;11.98;;;9.32;;
28629;SDS011;15817;42.130;24.762;2023-07-24T12:44:17;11.48;;;8.82;;
28629;SDS011;15817;42.130;24.762;2023-07-24T12:46:52;8.98;;;7.50;;
28629;SDS011;15817;42.130;24.762;2023-07-24T12:49:18;10.77;;;9.20;;
28629;SDS011;15817;42.130;24.762;2023-07-24T12:51:47;9.30;;;8.30;;
28629;SDS011;15817;42.130;24.762;2023-07-24T12:54:16;14.55;;;9.18;;
28629;SDS011;15817;42.130;24.762;2023-07-24T12:56:58;11.05;;;8.32;;
28629;SDS011;15817;42.130;24.762;2023-07-24T12:59:24;9.90;;;8.57;;
28629;SDS011;15817;42.130;24.762;2023-07-24T13:02:05;21.05;;;8.40;;
28629;SDS011;15817;42.130;24.762;2023-07-24T13:04:46;10.82;;;8.40;;
28629;SDS011;15817;42.130;24.762;2023-07-24T13:07:56;9.70;;;8.05;;
28629;SDS011;15817;42.130;24.762;2023-07-24T13:13:31;9.38;;;7.68;;
28629;SDS011;15817;42.130;24.762;2023-07-24T13:16:13;8.88;;;7.18;;
28629;SDS011;15817;42.130;24.762;2023-07-24T13:18:51;8.10;;;7.25;;
28629;SDS011;15817;42.130;24.762;2023-07-24T13:25:29;10.52;;;7.72;;
28629;SDS011;15817;42.130;24.762;2023-07-24T13:28:06;8.73;;;7.82;;
28629;SDS011;15817;42.130;24.762;2023-07-24T13:31:10;10.73;;;8.27;;
28629;SDS011;15817;42.130;24.762;2023-07-24T13:33:50;15.38;;;8.13;;
28629;SDS011;15817;42.130;24.762;2023-07-24T13:36:27;8.27;;;7.43;;
28629;SDS011;15817;42.130;24.762;2023-07-24T13:39:17;7.85;;;7.00;;
28629;SDS011;15817;42.130;24.762;2023-07-24T13:42:00;13.02;;;7.50;;
28629;SDS011;15817;42.130;24.762;2023-07-24T13:44:31;12.07;;;7.65;;
28629;SDS011;15817;42.130;24.762;2023-07-24T13:47:07;10.50;;;7.38;;
28629;SDS011;15817;42.130;24.762;2023-07-24T13:50:19;14.18;;;8.10;;
28629;SDS011;15817;42.130;24.762;2023-07-24T13:53:17;8.02;;;7.22;;
28629;SDS011;15817;42.130;24.762;2023-07-24T13:58:34;9.93;;;7.15;;
28629;SDS011;15817;42.130;24.762;2023-07-24T14:01:00;9.05;;;7.20;;
28629;SDS011;15817;42.130;24.762;2023-07-24T14:03:35;8.00;;;7.07;;
28629;SDS011;15817;42.130;24.762;2023-07-24T14:06:08;8.15;;;7.28;;
28629;SDS011;15817;42.130;24.762;2023-07-24T14:09:01;10.82;;;7.55;;
28629;SDS011;15817;42.130;24.762;2023-07-24T14:11:30;8.18;;;7.03;;
28629;SDS011;15817;42.130;24.762;2023-07-24T14:14:10;9.98;;;6.60;;
28629;SDS011;15817;42.130;24.762;2023-07-24T14:16:41;9.73;;;7.03;;
28629;SDS011;15817;42.130;24.762;2023-07-24T14:19:09;12.60;;;7.70;;
28629;SDS011;15817;42.130;24.762;2023-07-24T14:21:45;9.95;;;6.90;;
28629;SDS011;15817;42.130;24.762;2023-07-24T14:24:11;13.90;;;8.60;;
28629;SDS011;15817;42.130;24.762;2023-07-24T14:26:40;10.80;;;7.47;;
28629;SDS011;15817;42.130;24.762;2023-07-24T14:29:16;13.18;;;7.68;;
28629;SDS011;15817;42.130;24.762;2023-07-24T14:31:52;11.48;;;7.53;;
28629;SDS011;15817;42.130;24.762;2023-07-24T14:34:21;10.60;;;7.55;;
28629;SDS011;15817;42.130;24.762;2023-07-24T14:36:49;11.88;;;7.43;;
28629;SDS011;15817;42.130;24.762;2023-07-24T14:39:30;8.30;;;7.43;;
28629;SDS011;15817;42.130;24.762;2023-07-24T14:42:26;10.80;;;7.22;;
28629;SDS011;15817;42.130;24.762;2023-07-24T14:45:00;8.65;;;7.38;;
28629;SDS011;15817;42.130;24.762;2023-07-24T14:47:36;12.10;;;8.10;;
28629;SDS011;15817;42.130;24.762;2023-07-24T14:50:12;11.30;;;8.32;;
28629;SDS011;15817;42.130;24.762;2023-07-24T14:52:41;9.68;;;8.13;;
28629;SDS011;15817;42.130;24.762;2023-07-24T14:55:08;14.30;;;8.43;;
28629;SDS011;15817;42.130;24.762;2023-07-24T14:57:50;15.52;;;8.25;;
28629;SDS011;15817;42.130;24.762;2023-07-24T15:00:25;14.85;;;9.05;;
28629;SDS011;15817;42.130;24.762;2023-07-24T15:02:50;9.88;;;8.10;;
28629;SDS011;15817;42.130;24.762;2023-07-24T15:05:28;9.75;;;7.93;;
28629;SDS011;15817;42.130;24.762;2023-07-24T15:07:54;8.07;;;7.28;;
28629;SDS011;15817;42.130;24.762;2023-07-24T15:10:23;12.18;;;7.50;;
28629;SDS011;15817;42.130;24.762;2023-07-24T15:12:58;18.20;;;8.77;;
28629;SDS011;15817;42.130;24.762;2023-07-24T15:15:26;12.30;;;7.57;;
28629;SDS011;15817;42.130;24.762;2023-07-24T15:17:58;13.57;;;7.82;;
28629;SDS011;15817;42.130;24.762;2023-07-24T15:20:25;9.05;;;7.45;;
28629;SDS011;15817;42.130;24.762;2023-07-24T15:23:00;11.63;;;8.07;;
28629;SDS011;15817;42.130;24.762;2023-07-24T15:25:33;9.65;;;8.65;;
28629;SDS011;15817;42.130;24.762;2023-07-24T15:28:01;9.32;;;8.18;;
28629;SDS011;15817;42.130;24.762;2023-07-24T15:30:27;9.50;;;7.80;;
28629;SDS011;15817;42.130;24.762;2023-07-24T15:32:53;11.52;;;8.13;;
28629;SDS011;15817;42.130;24.762;2023-07-24T15:39:05;35.22;;;9.18;;
28629;SDS011;15817;42.130;24.762;2023-07-24T15:42:02;9.93;;;7.93;;
28629;SDS011;15817;42.130;24.762;2023-07-24T15:45:24;8.55;;;7.50;;
28629;SDS011;15817;42.130;24.762;2023-07-24T15:48:50;10.50;;;8.43;;
28629;SDS011;15817;42.130;24.762;2023-07-24T15:51:40;11.88;;;8.10;;
28629;SDS011;15817;42.130;24.762;2023-07-24T15:54:09;12.18;;;8.60;;